Time;durP1;ratioP1;P1;durP2;ratioP2;P2;SDS_P1;SDS_P2;PMS_P1;PMS_P2;Temp;Humidity;BMP_temperature;BMP_pressure;BME280_temperature;BME280_humidity;BME280_pressure;Samples;Min_cycle;Max_cycle;Signal;HPM_P1;HPM_P2
2020/12/25 00:01:24;;;;;;;5.13;1.97;;;;;;;;;;5082640;28;20856;-72
2020/12/25 00:03:55;;;;;;;2.67;1.00;;;;;;;;;;5080859;28;20530;-73
2020/12/25 00:06:28;;;;;;;3.57;1.30;;;;;;;;;;5093981;28;20767;-73
2020/12/25 00:09:01;;;;;;;5.73;1.23;;;;;;;;;;5100051;28;20860;-71
2020/12/25 00:11:43;;;;;;;4.30;1.37;;;;;;;;;;5099967;28;20582;-72
2020/12/25 00:14:12;;;;;;;3.93;1.57;;;;;;;;;;5096528;28;20473;-72
2020/12/25 00:16:45;;;;;;;4.27;1.00;;;;;;;;;;5079627;28;20896;-72
2020/12/25 00:19:12;;;;;;;3.33;1.00;;;;;;;;;;5079862;28;20475;-72
2020/12/25 00:21:42;;;;;;;4.03;1.30;;;;;;;;;;5079534;28;20464;-72
2020/12/25 00:24:13;;;;;;;12.47;1.13;;;;;;;;;;5079163;28;20860;-72
2020/12/25 00:26:44;;;;;;;2.33;0.87;;;;;;;;;;5079519;28;20539;-72
2020/12/25 00:29:11;;;;;;;3.47;1.00;;;;;;;;;;5089229;28;20884;-72
2020/12/25 00:31:42;;;;;;;3.23;1.20;;;;;;;;;;5079646;28;20822;-72
2020/12/25 00:34:11;;;;;;;3.43;1.10;;;;;;;;;;5078955;28;20869;-72
2020/12/25 00:36:39;;;;;;;3.77;1.67;;;;;;;;;;5091885;28;20913;-72
2020/12/25 00:39:07;;;;;;;4.57;0.90;;;;;;;;;;5097005;28;20456;-72
2020/12/25 00:41:35;;;;;;;3.43;1.00;;;;;;;;;;5099404;28;20459;-72
2020/12/25 00:44:02;;;;;;;5.60;1.40;;;;;;;;;;5088305;28;20457;-72
2020/12/25 00:46:30;;;;;;;2.40;1.00;;;;;;;;;;5079042;28;20465;-72
2020/12/25 00:48:57;;;;;;;2.30;1.27;;;;;;;;;;5078641;28;20716;-72
2020/12/25 00:51:24;;;;;;;2.37;0.90;;;;;;;;;;5078230;28;20490;-72
2020/12/25 00:53:52;;;;;;;2.63;0.80;;;;;;;;;;5079339;28;20507;-72
2020/12/25 00:56:20;;;;;;;3.40;0.80;;;;;;;;;;5098370;28;20899;-72
2020/12/25 00:58:47;;;;;;;2.93;0.87;;;;;;;;;;5099983;28;20456;-71
2020/12/25 01:01:15;;;;;;;5.50;1.30;;;;;;;;;;5098957;28;20490;-72
2020/12/25 01:03:45;;;;;;;7.27;1.53;;;;;;;;;;5098769;28;20919;-72
2020/12/25 01:06:13;;;;;;;6.23;1.00;;;;;;;;;;5099146;28;20742;-72
2020/12/25 01:08:41;;;;;;;6.87;1.67;;;;;;;;;;5098738;28;20887;-71
2020/12/25 01:11:08;;;;;;;2.40;1.43;;;;;;;;;;5098851;28;20456;-71
2020/12/25 01:13:38;;;;;;;3.80;2.03;;;;;;;;;;5099175;28;20456;-71
2020/12/25 01:16:05;;;;;;;6.73;1.63;;;;;;;;;;5097778;28;20876;-71
2020/12/25 01:18:32;;;;;;;3.10;1.27;;;;;;;;;;5099003;28;20459;-72
2020/12/25 01:21:00;;;;;;;5.30;1.93;;;;;;;;;;5098985;28;20468;-72
2020/12/25 01:23:27;;;;;;;4.63;1.60;;;;;;;;;;5087233;28;20456;-72
2020/12/25 01:25:55;;;;;;;4.00;1.73;;;;;;;;;;5078678;28;20503;-72
2020/12/25 01:28:22;;;;;;;4.33;2.03;;;;;;;;;;5078832;28;20467;-71
2020/12/25 01:30:50;;;;;;;5.03;2.00;;;;;;;;;;5080283;28;20472;-72
2020/12/25 01:33:17;;;;;;;3.90;1.83;;;;;;;;;;5078977;28;20495;-71
2020/12/25 01:35:44;;;;;;;2.83;1.80;;;;;;;;;;5078597;28;20617;-72
2020/12/25 01:38:12;;;;;;;5.00;2.23;;;;;;;;;;5078977;28;20456;-72
2020/12/25 01:40:39;;;;;;;4.53;2.10;;;;;;;;;;5078958;28;20487;-72
2020/12/25 01:43:06;;;;;;;5.30;1.50;;;;;;;;;;5078818;28;20461;-72
2020/12/25 01:45:34;;;;;;;8.33;2.43;;;;;;;;;;5078882;28;20452;-72
2020/12/25 01:48:02;;;;;;;5.93;2.10;;;;;;;;;;5078508;28;20900;-72
2020/12/25 01:50:31;;;;;;;2.27;1.10;;;;;;;;;;5096636;28;20490;-72
2020/12/25 01:52:59;;;;;;;4.77;2.20;;;;;;;;;;5098550;28;20756;-72
2020/12/25 01:55:27;;;;;;;3.83;1.50;;;;;;;;;;5098304;28;20791;-72
2020/12/25 01:57:55;;;;;;;11.73;2.17;;;;;;;;;;5097784;28;20886;-72
2020/12/25 02:00:26;;;;;;;3.27;1.90;;;;;;;;;;5097960;28;20722;-72
2020/12/25 02:02:53;;;;;;;3.80;2.13;;;;;;;;;;5098036;28;20477;-73
2020/12/25 02:05:22;;;;;;;4.73;2.13;;;;;;;;;;5097221;28;20452;-72
2020/12/25 02:07:49;;;;;;;3.93;2.07;;;;;;;;;;5098102;28;20456;-73
2020/12/25 02:10:16;;;;;;;3.03;1.90;;;;;;;;;;5097860;28;20452;-72
2020/12/25 02:12:44;;;;;;;6.37;2.10;;;;;;;;;;5097820;28;20499;-72
2020/12/25 02:15:12;;;;;;;4.80;1.60;;;;;;;;;;5091794;28;20743;-72
2020/12/25 02:17:46;;;;;;;3.90;1.90;;;;;;;;;;5092646;28;20456;-72
2020/12/25 02:20:13;;;;;;;9.57;2.40;;;;;;;;;;5079013;28;20461;-72
2020/12/25 02:22:41;;;;;;;9.63;2.97;;;;;;;;;;5079787;28;20461;-72
2020/12/25 02:25:09;;;;;;;5.27;2.80;;;;;;;;;;5078731;28;20448;-72
2020/12/25 02:27:36;;;;;;;8.60;2.63;;;;;;;;;;5082946;28;20483;-73
2020/12/25 02:30:04;;;;;;;3.23;1.80;;;;;;;;;;5086163;28;20484;-72
2020/12/25 02:32:31;;;;;;;4.17;2.03;;;;;;;;;;5084294;28;20994;-72
2020/12/25 02:34:58;;;;;;;6.50;2.50;;;;;;;;;;5096312;28;20463;-72
2020/12/25 02:37:26;;;;;;;3.50;2.37;;;;;;;;;;5091360;28;20448;-72
2020/12/25 02:39:54;;;;;;;4.57;2.00;;;;;;;;;;5097357;28;20475;-72
2020/12/25 02:42:22;;;;;;;5.10;2.17;;;;;;;;;;5091212;28;20487;-72
2020/12/25 02:44:49;;;;;;;3.70;2.53;;;;;;;;;;5097461;28;20513;-72
2020/12/25 02:47:16;;;;;;;5.17;2.33;;;;;;;;;;5097026;28;20464;-72
2020/12/25 02:49:43;;;;;;;9.80;3.03;;;;;;;;;;5091413;28;20463;-72
2020/12/25 02:52:11;;;;;;;4.70;2.40;;;;;;;;;;5097115;28;20803;-72
2020/12/25 02:54:38;;;;;;;10.50;3.30;;;;;;;;;;5085168;28;20946;-72
2020/12/25 02:57:06;;;;;;;5.13;2.30;;;;;;;;;;5077587;28;20453;-72
2020/12/25 02:59:33;;;;;;;3.73;2.40;;;;;;;;;;5089052;28;20534;-72
2020/12/25 03:02:01;;;;;;;7.80;3.37;;;;;;;;;;5078425;28;20461;-72
2020/12/25 03:04:28;;;;;;;5.13;2.30;;;;;;;;;;5077793;28;20457;-72
2020/12/25 03:06:55;;;;;;;3.80;2.70;;;;;;;;;;5077489;28;20471;-72
2020/12/25 03:09:22;;;;;;;4.90;2.97;;;;;;;;;;5088034;28;20471;-72
2020/12/25 03:11:50;;;;;;;4.93;2.70;;;;;;;;;;5097014;28;20492;-73
2020/12/25 03:14:18;;;;;;;5.50;2.60;;;;;;;;;;5096481;28;20464;-72
2020/12/25 03:16:48;;;;;;;7.37;3.00;;;;;;;;;;5094614;28;20521;-72
2020/12/25 03:19:16;;;;;;;5.40;2.40;;;;;;;;;;5089498;28;20798;-72
2020/12/25 03:21:43;;;;;;;6.70;2.77;;;;;;;;;;5076239;28;20453;-72
2020/12/25 03:24:13;;;;;;;7.73;3.37;;;;;;;;;;5076692;28;20547;-72
2020/12/25 03:26:41;;;;;;;5.73;3.10;;;;;;;;;;5076411;28;20515;-72
2020/12/25 03:29:08;;;;;;;8.33;3.50;;;;;;;;;;5076826;28;20465;-72
2020/12/25 03:31:36;;;;;;;6.80;4.00;;;;;;;;;;5076430;28;20562;-72
2020/12/25 03:34:03;;;;;;;7.50;3.40;;;;;;;;;;5076088;28;20542;-72
2020/12/25 03:36:31;;;;;;;5.50;3.87;;;;;;;;;;5076684;28;20453;-72
2020/12/25 03:38:59;;;;;;;6.57;3.80;;;;;;;;;;5077025;28;21036;-72
2020/12/25 03:41:26;;;;;;;5.77;3.50;;;;;;;;;;5081814;28;20464;-72
2020/12/25 03:43:53;;;;;;;5.20;3.97;;;;;;;;;;5080518;28;20452;-72
2020/12/25 03:46:21;;;;;;;6.83;3.37;;;;;;;;;;5098648;28;20520;-72
2020/12/25 03:48:49;;;;;;;5.67;3.00;;;;;;;;;;5101028;28;20471;-72
2020/12/25 03:51:16;;;;;;;3.70;2.97;;;;;;;;;;5100358;28;20452;-71
2020/12/25 03:53:43;;;;;;;7.77;3.00;;;;;;;;;;5099641;28;20502;-72
2020/12/25 03:56:11;;;;;;;5.83;3.67;;;;;;;;;;5100252;28;20470;-71
2020/12/25 03:58:38;;;;;;;6.87;3.20;;;;;;;;;;5100724;28;20529;-72
2020/12/25 04:01:05;;;;;;;7.27;3.23;;;;;;;;;;5100205;28;20596;-72
2020/12/25 04:03:32;;;;;;;6.60;3.40;;;;;;;;;;5100479;28;20460;-71
2020/12/25 04:06:01;;;;;;;7.80;2.37;;;;;;;;;;5100401;28;20451;-72
2020/12/25 04:08:28;;;;;;;6.50;3.13;;;;;;;;;;5099247;28;20458;-72
2020/12/25 04:10:55;;;;;;;12.23;4.40;;;;;;;;;;5100324;28;20517;-71
2020/12/25 04:13:22;;;;;;;5.57;3.03;;;;;;;;;;5092303;28;20549;-71
2020/12/25 04:15:50;;;;;;;6.40;2.37;;;;;;;;;;5080000;28;20456;-71
2020/12/25 04:18:17;;;;;;;5.30;2.73;;;;;;;;;;5080289;28;20511;-71
2020/12/25 04:20:44;;;;;;;4.50;3.20;;;;;;;;;;5080146;28;20489;-71
2020/12/25 04:23:12;;;;;;;7.90;3.47;;;;;;;;;;5080497;28;20472;-71
2020/12/25 04:25:40;;;;;;;4.30;2.87;;;;;;;;;;5080511;28;20460;-71
2020/12/25 04:28:07;;;;;;;4.40;2.10;;;;;;;;;;5079674;28;20468;-71
2020/12/25 04:30:34;;;;;;;12.23;4.43;;;;;;;;;;5080078;28;20460;-71
2020/12/25 04:33:05;;;;;;;7.87;3.37;;;;;;;;;;5081027;28;20484;-72
2020/12/25 04:35:34;;;;;;;7.63;3.30;;;;;;;;;;5079248;28;20770;-72
2020/12/25 04:38:01;;;;;;;5.10;2.37;;;;;;;;;;5072849;28;20456;-72
2020/12/25 04:40:30;;;;;;;5.43;2.30;;;;;;;;;;5079827;28;20522;-72
2020/12/25 04:42:59;;;;;;;5.07;2.17;;;;;;;;;;5080840;28;20755;-72
2020/12/25 04:45:26;;;;;;;6.07;1.90;;;;;;;;;;5084957;28;20725;-72
2020/12/25 04:47:53;;;;;;;4.37;2.80;;;;;;;;;;5093509;28;20472;-72
2020/12/25 04:50:21;;;;;;;6.23;2.53;;;;;;;;;;5079188;28;20763;-71
2020/12/25 04:52:49;;;;;;;4.77;2.40;;;;;;;;;;5079270;28;20488;-72
2020/12/25 04:55:16;;;;;;;8.50;2.40;;;;;;;;;;5080007;28;20869;-72
2020/12/25 04:57:44;;;;;;;8.43;1.97;;;;;;;;;;5082084;28;20452;-72
2020/12/25 05:00:18;;;;;;;3.63;1.97;;;;;;;;;;5098949;28;20456;-72
2020/12/25 05:02:48;;;;;;;5.17;2.33;;;;;;;;;;5099178;28;20467;-72
2020/12/25 05:05:16;;;;;;;5.43;1.70;;;;;;;;;;5099198;28;20460;-71
2020/12/25 05:07:44;;;;;;;8.10;2.67;;;;;;;;;;5084862;28;20546;-71
2020/12/25 05:10:12;;;;;;;4.10;1.87;;;;;;;;;;5098921;28;20868;-72
2020/12/25 05:12:39;;;;;;;8.17;2.60;;;;;;;;;;5098671;28;20499;-72
2020/12/25 05:15:09;;;;;;;4.50;1.70;;;;;;;;;;5098865;28;20471;-72
2020/12/25 05:17:37;;;;;;;8.53;2.40;;;;;;;;;;5097220;28;20476;-72
2020/12/25 05:20:04;;;;;;;9.10;2.10;;;;;;;;;;5079182;28;20472;-72
2020/12/25 05:22:32;;;;;;;4.10;1.80;;;;;;;;;;5079117;28;20530;-72
2020/12/25 05:25:01;;;;;;;4.13;2.17;;;;;;;;;;5079849;28;20456;-72
2020/12/25 05:27:30;;;;;;;11.00;2.30;;;;;;;;;;5079067;28;20853;-72
2020/12/25 05:30:00;;;;;;;3.50;2.00;;;;;;;;;;5098975;28;20739;-72
2020/12/25 05:32:30;;;;;;;6.57;2.70;;;;;;;;;;5098154;28;20487;-72
2020/12/25 05:34:57;;;;;;;3.00;1.90;;;;;;;;;;5098788;28;20564;-72
2020/12/25 05:37:33;;;;;;;6.90;2.23;;;;;;;;;;5098256;28;20460;-72
2020/12/25 05:40:02;;;;;;;6.23;2.00;;;;;;;;;;5077454;28;20495;-72
2020/12/25 05:42:34;;;;;;;5.00;2.10;;;;;;;;;;5078295;28;20456;-73
2020/12/25 05:45:01;;;;;;;6.50;2.37;;;;;;;;;;5078114;28;20493;-72
2020/12/25 05:47:29;;;;;;;4.50;2.47;;;;;;;;;;5078857;28;20457;-72
2020/12/25 05:49:56;;;;;;;4.37;2.27;;;;;;;;;;5077703;28;20461;-73
2020/12/25 05:52:24;;;;;;;4.40;2.50;;;;;;;;;;5077902;28;20566;-72
2020/12/25 05:54:53;;;;;;;6.10;2.70;;;;;;;;;;5077631;28;20464;-72
2020/12/25 05:57:21;;;;;;;4.67;2.63;;;;;;;;;;5077207;28;20452;-72
2020/12/25 05:59:49;;;;;;;10.30;3.17;;;;;;;;;;5096151;28;20479;-72
2020/12/25 06:02:17;;;;;;;5.70;3.20;;;;;;;;;;5098076;28;20459;-72
2020/12/25 06:04:46;;;;;;;4.67;2.53;;;;;;;;;;5097642;28;20472;-72
2020/12/25 06:07:17;;;;;;;4.90;2.50;;;;;;;;;;5092619;28;20460;-72
2020/12/25 06:09:46;;;;;;;6.37;3.37;;;;;;;;;;5078193;28;20986;-72
2020/12/25 06:12:16;;;;;;;6.10;2.83;;;;;;;;;;5077280;28;21162;-72
2020/12/25 06:14:43;;;;;;;6.60;2.23;;;;;;;;;;5085127;28;20468;-72
2020/12/25 06:17:16;;;;;;;6.83;1.90;;;;;;;;;;5096954;28;20468;-72
2020/12/25 06:19:49;;;;;;;4.13;2.20;;;;;;;;;;5077728;28;20885;-72
2020/12/25 06:22:21;;;;;;;6.37;2.43;;;;;;;;;;5077498;28;20815;-72
2020/12/25 06:24:49;;;;;;;6.73;3.03;;;;;;;;;;5077210;28;20468;-72
2020/12/25 06:27:16;;;;;;;4.70;2.73;;;;;;;;;;5079355;28;20456;-72
2020/12/25 06:29:44;;;;;;;5.70;2.10;;;;;;;;;;5097594;28;20741;-72
2020/12/25 06:32:12;;;;;;;6.87;3.10;;;;;;;;;;5097194;28;20562;-72
2020/12/25 06:34:50;;;;;;;6.20;2.10;;;;;;;;;;5087413;28;20461;-72
2020/12/25 06:37:18;;;;;;;9.90;2.90;;;;;;;;;;5077811;28;20455;-72
2020/12/25 06:39:51;;;;;;;8.40;2.30;;;;;;;;;;5077657;28;20475;-72
2020/12/25 06:42:25;;;;;;;3.63;1.93;;;;;;;;;;5078186;28;20769;-72
2020/12/25 06:44:52;;;;;;;7.97;2.47;;;;;;;;;;5086763;28;20562;-72
2020/12/25 06:47:37;;;;;;;6.50;3.07;;;;;;;;;;5097147;28;20452;-72
2020/12/25 06:50:14;;;;;;;6.93;1.97;;;;;;;;;;5097441;28;20466;-72
2020/12/25 06:52:54;;;;;;;5.40;1.80;;;;;;;;;;5096863;28;20728;-72
2020/12/25 06:55:22;;;;;;;7.87;2.10;;;;;;;;;;5082748;28;20476;-72
2020/12/25 06:57:51;;;;;;;6.70;2.00;;;;;;;;;;5077684;28;20538;-72
2020/12/25 07:00:20;;;;;;;10.50;2.30;;;;;;;;;;5095421;28;21123;-72
2020/12/25 07:02:47;;;;;;;5.60;2.00;;;;;;;;;;5096481;28;20460;-72
2020/12/25 07:05:15;;;;;;;3.60;1.53;;;;;;;;;;5096804;28;20464;-72
2020/12/25 07:07:43;;;;;;;4.73;2.10;;;;;;;;;;5096750;28;20926;-72
2020/12/25 07:10:10;;;;;;;6.13;2.80;;;;;;;;;;5076977;28;20749;-72
2020/12/25 07:12:38;;;;;;;5.33;2.43;;;;;;;;;;5077149;28;20657;-72
2020/12/25 07:15:06;;;;;;;12.27;2.70;;;;;;;;;;5076727;28;20461;-72
2020/12/25 07:17:33;;;;;;;5.00;2.90;;;;;;;;;;5078228;28;20456;-72
2020/12/25 07:20:01;;;;;;;6.33;2.43;;;;;;;;;;5093417;28;20456;-72
2020/12/25 07:22:29;;;;;;;4.23;2.37;;;;;;;;;;5097487;28;20463;-71
2020/12/25 07:24:57;;;;;;;5.70;2.63;;;;;;;;;;5096791;28;20467;-72
2020/12/25 07:27:24;;;;;;;18.83;2.97;;;;;;;;;;5095793;28;20538;-71
2020/12/25 07:29:55;;;;;;;7.80;3.27;;;;;;;;;;5081330;28;20496;-72
2020/12/25 07:32:22;;;;;;;8.43;2.83;;;;;;;;;;5076945;28;20484;-72
2020/12/25 07:34:50;;;;;;;9.17;2.80;;;;;;;;;;5078452;28;20468;-71
2020/12/25 07:37:17;;;;;;;5.03;2.40;;;;;;;;;;5077264;28;20453;-71
2020/12/25 07:39:45;;;;;;;3.70;2.03;;;;;;;;;;5092316;28;20475;-72
2020/12/25 07:42:12;;;;;;;5.40;2.23;;;;;;;;;;5097944;28;20474;-71
2020/12/25 07:44:40;;;;;;;3.43;1.73;;;;;;;;;;5096410;28;20456;-71
2020/12/25 07:47:10;;;;;;;4.53;2.63;;;;;;;;;;5098127;28;20467;-71
2020/12/25 07:49:39;;;;;;;3.23;1.77;;;;;;;;;;5083273;28;20522;-71
2020/12/25 07:52:10;;;;;;;5.13;1.93;;;;;;;;;;5077391;28;21118;-71
2020/12/25 07:54:37;;;;;;;9.00;2.63;;;;;;;;;;5076272;28;20464;-71
2020/12/25 07:57:07;;;;;;;4.23;1.90;;;;;;;;;;5077171;28;20538;-71
2020/12/25 07:59:36;;;;;;;3.10;2.20;;;;;;;;;;5088332;28;20460;-71
2020/12/25 08:02:04;;;;;;;6.00;1.73;;;;;;;;;;5097312;28;20455;-71
2020/12/25 08:04:31;;;;;;;4.47;1.60;;;;;;;;;;5096061;28;20868;-71
2020/12/25 08:06:58;;;;;;;4.77;1.70;;;;;;;;;;5095517;28;20456;-71
2020/12/25 08:09:26;;;;;;;3.80;1.87;;;;;;;;;;5085871;28;20449;-71
2020/12/25 08:11:53;;;;;;;4.23;2.10;;;;;;;;;;5076187;28;20473;-71
2020/12/25 08:14:22;;;;;;;5.80;1.50;;;;;;;;;;5076390;28;20465;-71
2020/12/25 08:16:49;;;;;;;7.63;2.10;;;;;;;;;;5076308;28;20453;-71
2020/12/25 08:19:18;;;;;;;12.20;2.33;;;;;;;;;;5085396;28;20471;-71
2020/12/25 08:21:46;;;;;;;7.40;2.10;;;;;;;;;;5095490;28;20479;-71
2020/12/25 08:24:13;;;;;;;4.87;1.90;;;;;;;;;;5086241;28;20854;-71
2020/12/25 08:26:41;;;;;;;9.20;1.83;;;;;;;;;;5077501;28;20530;-71
2020/12/25 08:29:09;;;;;;;3.60;1.80;;;;;;;;;;5080043;28;20460;-71
2020/12/25 08:31:38;;;;;;;2.90;1.60;;;;;;;;;;5079830;28;20456;-71
2020/12/25 08:34:05;;;;;;;5.37;1.70;;;;;;;;;;5086380;28;20463;-71
2020/12/25 08:36:33;;;;;;;5.50;1.90;;;;;;;;;;5098676;28;20937;-71
2020/12/25 08:39:01;;;;;;;5.07;1.90;;;;;;;;;;5099111;28;20464;-71
2020/12/25 08:41:28;;;;;;;7.97;2.50;;;;;;;;;;5099149;28;21047;-73
2020/12/25 08:43:56;;;;;;;11.43;2.63;;;;;;;;;;5093310;28;20473;-72
2020/12/25 08:46:23;;;;;;;2.70;1.50;;;;;;;;;;5079608;28;20460;-72
2020/12/25 08:48:52;;;;;;;5.30;2.73;;;;;;;;;;5079572;28;20453;-71
2020/12/25 08:51:20;;;;;;;8.30;2.30;;;;;;;;;;5079428;28;20495;-71
2020/12/25 08:53:51;;;;;;;4.83;1.90;;;;;;;;;;5083236;28;20476;-72
2020/12/25 08:56:19;;;;;;;5.90;2.27;;;;;;;;;;5098486;28;20452;-72
2020/12/25 08:58:57;;;;;;;4.70;1.80;;;;;;;;;;5098612;28;20464;-72
2020/12/25 09:01:24;;;;;;;4.83;1.80;;;;;;;;;;5098559;28;20858;-72
2020/12/25 09:03:53;;;;;;;6.37;1.90;;;;;;;;;;5094346;28;20468;-72
2020/12/25 09:06:20;;;;;;;9.63;2.43;;;;;;;;;;5079405;28;20457;-72
2020/12/25 09:08:47;;;;;;;2.70;1.60;;;;;;;;;;5078854;28;20744;-72
2020/12/25 09:11:16;;;;;;;5.13;1.83;;;;;;;;;;5079473;28;20467;-72
2020/12/25 09:13:46;;;;;;;4.13;2.20;;;;;;;;;;5078962;28;20480;-71
2020/12/25 09:16:15;;;;;;;3.23;1.60;;;;;;;;;;5079848;28;20457;-71
2020/12/25 09:18:42;;;;;;;9.20;2.50;;;;;;;;;;5078656;28;20799;-71
2020/12/25 09:21:11;;;;;;;5.23;2.27;;;;;;;;;;5078625;28;20865;-71
2020/12/25 09:23:39;;;;;;;2.90;1.60;;;;;;;;;;5076053;28;20448;-71
2020/12/25 09:26:07;;;;;;;7.03;1.50;;;;;;;;;;5079000;28;20472;-71
2020/12/25 09:28:35;;;;;;;5.00;1.70;;;;;;;;;;5078757;28;20453;-71
2020/12/25 09:31:04;;;;;;;7.47;2.87;;;;;;;;;;5088585;28;20888;-72
2020/12/25 09:33:33;;;;;;;5.80;1.87;;;;;;;;;;5097092;28;20495;-72
2020/12/25 09:36:04;;;;;;;2.07;1.20;;;;;;;;;;5078527;28;20539;-72
2020/12/25 09:38:32;;;;;;;5.37;1.90;;;;;;;;;;5078580;28;20454;-72
2020/12/25 09:41:00;;;;;;;3.57;1.23;;;;;;;;;;5078764;28;20526;-72
2020/12/25 09:43:29;;;;;;;5.00;1.20;;;;;;;;;;5077706;28;20452;-71
2020/12/25 09:45:56;;;;;;;9.47;1.53;;;;;;;;;;5095347;28;20863;-72
2020/12/25 09:48:24;;;;;;;5.43;2.40;;;;;;;;;;5078030;28;20453;-72
2020/12/25 09:50:51;;;;;;;6.80;1.90;;;;;;;;;;5079272;28;20456;-72
2020/12/25 09:53:19;;;;;;;5.10;1.90;;;;;;;;;;5087261;28;20485;-70
2020/12/25 09:55:50;;;;;;;2.70;1.20;;;;;;;;;;5077107;28;20472;-70
2020/12/25 09:58:18;;;;;;;2.30;1.30;;;;;;;;;;5077665;28;20522;-72
2020/12/25 10:00:45;;;;;;;5.80;1.87;;;;;;;;;;5097255;28;20456;-72
2020/12/25 10:03:13;;;;;;;4.23;1.53;;;;;;;;;;5086038;28;20472;-73
2020/12/25 10:05:40;;;;;;;4.10;1.90;;;;;;;;;;5097532;28;20666;-72
2020/12/25 10:08:10;;;;;;;4.33;1.13;;;;;;;;;;5097021;28;20457;-72
2020/12/25 10:10:38;;;;;;;5.13;1.60;;;;;;;;;;5096044;28;20511;-72
2020/12/25 10:13:07;;;;;;;5.30;1.90;;;;;;;;;;5097227;28;20484;-72
2020/12/25 10:15:35;;;;;;;4.20;1.70;;;;;;;;;;5096140;28;20460;-72
2020/12/25 10:18:09;;;;;;;6.53;2.23;;;;;;;;;;5096127;28;20907;-72
2020/12/25 10:20:38;;;;;;;5.33;3.20;;;;;;;;;;5096223;28;20524;-72
2020/12/25 10:23:28;;;;;;;7.27;1.70;;;;;;;;;;5095497;28;20801;-71
2020/12/25 10:26:06;;;;;;;8.37;1.43;;;;;;;;;;5094893;28;20763;-71
2020/12/25 10:28:38;;;;;;;3.83;2.00;;;;;;;;;;5081073;28;20481;-72
2020/12/25 10:31:06;;;;;;;4.13;1.97;;;;;;;;;;5096251;28;20444;-72
2020/12/25 10:33:33;;;;;;;3.73;1.90;;;;;;;;;;5082292;28;20497;-72
2020/12/25 10:36:00;;;;;;;5.77;1.83;;;;;;;;;;5077050;28;20468;-73
2020/12/25 10:38:33;;;;;;;3.20;1.83;;;;;;;;;;5090348;28;20488;-72
2020/12/25 10:41:12;;;;;;;3.37;1.40;;;;;;;;;;5096360;28;20556;-72
2020/12/25 10:43:50;;;;;;;6.43;2.03;;;;;;;;;;5096723;28;20455;-73
2020/12/25 10:46:25;;;;;;;4.10;2.03;;;;;;;;;;5096518;28;20727;-73
2020/12/25 10:48:52;;;;;;;7.60;2.27;;;;;;;;;;5096571;28;20455;-72
2020/12/25 10:51:19;;;;;;;2.83;1.40;;;;;;;;;;5096688;28;20463;-72
2020/12/25 10:53:47;;;;;;;2.93;1.40;;;;;;;;;;5096113;28;20479;-72
2020/12/25 10:56:21;;;;;;;9.23;2.00;;;;;;;;;;5093268;28;20495;-72
2020/12/25 10:58:54;;;;;;;5.50;1.90;;;;;;;;;;5082476;28;20495;-72
2020/12/25 11:01:22;;;;;;;6.73;2.27;;;;;;;;;;5079230;28;20461;-71
2020/12/25 11:03:52;;;;;;;7.40;2.00;;;;;;;;;;5082960;28;20468;-72
2020/12/25 11:06:20;;;;;;;3.70;2.20;;;;;;;;;;5077649;28;21559;-71
2020/12/25 11:08:48;;;;;;;5.27;1.40;;;;;;;;;;5077327;28;20861;-71
2020/12/25 11:11:23;;;;;;;3.00;1.60;;;;;;;;;;5089943;28;20467;-71
2020/12/25 11:13:51;;;;;;;3.60;1.70;;;;;;;;;;5088257;28;20476;-71
2020/12/25 11:16:25;;;;;;;2.23;1.30;;;;;;;;;;5074458;28;20483;-72
2020/12/25 11:18:52;;;;;;;2.93;1.70;;;;;;;;;;5080759;28;20461;-71
2020/12/25 11:21:23;;;;;;;5.40;1.90;;;;;;;;;;5079424;28;20452;-72
2020/12/25 11:23:55;;;;;;;5.90;2.93;;;;;;;;;;5076527;28;20505;-72
2020/12/25 11:26:23;;;;;;;4.00;1.50;;;;;;;;;;5079223;28;20456;-72
2020/12/25 11:28:55;;;;;;;8.63;2.40;;;;;;;;;;5087363;28;20457;-70
2020/12/25 11:31:22;;;;;;;2.23;1.37;;;;;;;;;;5094334;28;20752;-70
2020/12/25 11:33:53;;;;;;;7.03;2.43;;;;;;;;;;5084180;28;20485;-70
2020/12/25 11:36:22;;;;;;;4.10;2.20;;;;;;;;;;5075152;28;20534;-70
2020/12/25 11:38:52;;;;;;;5.53;2.07;;;;;;;;;;5095673;28;20460;-71
2020/12/25 11:41:21;;;;;;;5.00;1.70;;;;;;;;;;5088426;28;20460;-71
2020/12/25 11:43:48;;;;;;;3.00;1.73;;;;;;;;;;5078744;28;20463;-71
2020/12/25 11:46:17;;;;;;;3.40;2.53;;;;;;;;;;5077435;28;20880;-71
2020/12/25 11:48:44;;;;;;;11.13;2.20;;;;;;;;;;5085591;28;20522;-71
2020/12/25 11:51:17;;;;;;;3.07;1.87;;;;;;;;;;5079479;28;20526;-71
2020/12/25 11:53:44;;;;;;;3.30;1.67;;;;;;;;;;5092674;28;20483;-71
2020/12/25 11:56:12;;;;;;;7.40;2.27;;;;;;;;;;5091391;28;20769;-71
2020/12/25 11:58:39;;;;;;;4.00;2.10;;;;;;;;;;5085854;28;20455;-71
2020/12/25 12:01:06;;;;;;;4.83;2.57;;;;;;;;;;5098086;28;20498;-71
2020/12/25 12:03:35;;;;;;;6.07;1.83;;;;;;;;;;5099596;28;20461;-71
2020/12/25 12:06:02;;;;;;;10.77;2.13;;;;;;;;;;5098596;28;20507;-71
2020/12/25 12:08:30;;;;;;;3.10;2.10;;;;;;;;;;5099442;28;20460;-71
2020/12/25 12:10:58;;;;;;;2.87;1.40;;;;;;;;;;5091946;28;20465;-71
2020/12/25 12:13:26;;;;;;;5.33;1.77;;;;;;;;;;5098812;28;20747;-71
2020/12/25 12:15:53;;;;;;;3.43;1.50;;;;;;;;;;5097844;28;20476;-71
2020/12/25 12:18:20;;;;;;;4.40;2.10;;;;;;;;;;5098930;28;20451;-71
2020/12/25 12:20:56;;;;;;;5.37;1.53;;;;;;;;;;5087973;28;20452;-71
2020/12/25 12:23:29;;;;;;;6.60;2.17;;;;;;;;;;5093351;28;20463;-72
2020/12/25 12:25:58;;;;;;;6.43;1.57;;;;;;;;;;5099093;28;20451;-71
2020/12/25 12:28:25;;;;;;;3.27;1.37;;;;;;;;;;5075701;28;20452;-71
2020/12/25 12:31:06;;;;;;;5.00;2.00;;;;;;;;;;5078794;28;20941;-72
2020/12/25 12:33:33;;;;;;;3.20;1.80;;;;;;;;;;5089720;28;20572;-71
2020/12/25 12:36:03;;;;;;;3.53;1.67;;;;;;;;;;5091594;28;20493;-72
2020/12/25 12:38:30;;;;;;;4.50;1.70;;;;;;;;;;5098087;28;20802;-71
2020/12/25 12:40:57;;;;;;;4.43;1.67;;;;;;;;;;5080924;28;20449;-72
2020/12/25 12:43:25;;;;;;;5.10;1.90;;;;;;;;;;5079107;28;20468;-71
2020/12/25 12:45:52;;;;;;;5.40;1.70;;;;;;;;;;5096565;28;20483;-71
2020/12/25 12:48:19;;;;;;;6.43;2.30;;;;;;;;;;5098310;28;20456;-71
2020/12/25 12:50:52;;;;;;;6.33;2.70;;;;;;;;;;5083954;28;20449;-72
2020/12/25 12:53:22;;;;;;;5.27;1.67;;;;;;;;;;5081220;28;20504;-72
2020/12/25 12:55:50;;;;;;;5.00;1.93;;;;;;;;;;5091033;28;20892;-72
2020/12/25 12:58:18;;;;;;;8.30;1.90;;;;;;;;;;5077231;28;20453;-72
2020/12/25 13:00:50;;;;;;;9.63;1.33;;;;;;;;;;5078695;28;20467;-72
2020/12/25 13:03:19;;;;;;;5.13;2.20;;;;;;;;;;5081411;28;20473;-71
2020/12/25 13:05:47;;;;;;;4.53;2.00;;;;;;;;;;5081879;28;20724;-71
2020/12/25 13:08:14;;;;;;;6.50;1.60;;;;;;;;;;5084928;28;20835;-72
2020/12/25 13:10:44;;;;;;;12.00;1.50;;;;;;;;;;5090732;28;20461;-72
2020/12/25 13:13:11;;;;;;;4.10;1.43;;;;;;;;;;5087787;28;20497;-72
2020/12/25 13:15:39;;;;;;;4.40;1.40;;;;;;;;;;5093830;28;20471;-72
2020/12/25 13:18:09;;;;;;;11.43;1.93;;;;;;;;;;5097790;28;20464;-72
2020/12/25 13:20:41;;;;;;;7.30;1.40;;;;;;;;;;5088852;28;20556;-72
2020/12/25 13:23:09;;;;;;;4.83;1.50;;;;;;;;;;5078634;28;20461;-72
2020/12/25 13:25:39;;;;;;;3.13;1.30;;;;;;;;;;5091663;28;20448;-72
2020/12/25 13:28:07;;;;;;;3.13;1.30;;;;;;;;;;5088969;28;21066;-72
2020/12/25 13:30:35;;;;;;;4.00;1.53;;;;;;;;;;5095658;28;20459;-72
2020/12/25 13:33:03;;;;;;;5.40;1.73;;;;;;;;;;5094651;28;20491;-73
2020/12/25 13:35:31;;;;;;;3.10;1.43;;;;;;;;;;5093884;28;20798;-72
2020/12/25 13:37:58;;;;;;;3.40;1.30;;;;;;;;;;5077314;28;20815;-72
2020/12/25 13:40:25;;;;;;;5.87;1.40;;;;;;;;;;5078559;28;20472;-72
2020/12/25 13:42:52;;;;;;;7.10;3.10;;;;;;;;;;5080304;28;20476;-72
2020/12/25 13:45:21;;;;;;;3.87;1.60;;;;;;;;;;5077264;28;20468;-72
2020/12/25 13:47:52;;;;;;;2.83;1.57;;;;;;;;;;5087612;28;20852;-72
2020/12/25 13:50:20;;;;;;;4.67;1.53;;;;;;;;;;5084969;28;20838;-72
2020/12/25 13:52:47;;;;;;;4.63;1.63;;;;;;;;;;5080077;28;20550;-72
2020/12/25 13:55:15;;;;;;;3.43;1.83;;;;;;;;;;5076706;28;20465;-72
2020/12/25 13:57:42;;;;;;;3.97;1.43;;;;;;;;;;5093487;28;20518;-72
2020/12/25 14:00:09;;;;;;;3.37;1.37;;;;;;;;;;5096569;28;20471;-72
2020/12/25 14:02:38;;;;;;;3.20;1.60;;;;;;;;;;5095610;28;20550;-72
2020/12/25 14:05:06;;;;;;;7.03;2.00;;;;;;;;;;5095956;28;20533;-72
2020/12/25 14:07:33;;;;;;;3.43;1.87;;;;;;;;;;5086166;28;20468;-72
2020/12/25 14:10:00;;;;;;;4.70;1.73;;;;;;;;;;5075881;28;20573;-72
2020/12/25 14:12:30;;;;;;;4.37;1.90;;;;;;;;;;5076733;28;20730;-72
2020/12/25 14:14:58;;;;;;;6.57;1.77;;;;;;;;;;5075479;28;20453;-72
2020/12/25 14:17:25;;;;;;;4.17;1.43;;;;;;;;;;5075740;28;20456;-72
2020/12/25 14:19:53;;;;;;;4.73;1.60;;;;;;;;;;5075933;28;20469;-72
2020/12/25 14:22:20;;;;;;;4.23;1.10;;;;;;;;;;5076471;28;20892;-72
2020/12/25 14:24:48;;;;;;;3.90;1.40;;;;;;;;;;5087915;28;20461;-72
2020/12/25 14:27:16;;;;;;;3.83;1.30;;;;;;;;;;5076164;28;20768;-71
2020/12/25 14:29:43;;;;;;;4.90;1.53;;;;;;;;;;5075979;28;20514;-71
2020/12/25 14:32:10;;;;;;;4.97;1.63;;;;;;;;;;5079290;28;20484;-72
2020/12/25 14:34:39;;;;;;;3.60;1.87;;;;;;;;;;5081942;28;20484;-72
2020/12/25 14:37:07;;;;;;;8.77;1.53;;;;;;;;;;5075353;28;20514;-71
2020/12/25 14:39:34;;;;;;;3.10;1.20;;;;;;;;;;5086425;28;20503;-71
2020/12/25 14:42:02;;;;;;;2.30;1.40;;;;;;;;;;5094768;28;20494;-71
2020/12/25 14:44:29;;;;;;;3.93;1.53;;;;;;;;;;5080871;28;20480;-72
2020/12/25 14:46:57;;;;;;;3.83;1.33;;;;;;;;;;5090925;28;20916;-72
2020/12/25 14:49:24;;;;;;;4.37;1.80;;;;;;;;;;5076152;28;20449;-73
2020/12/25 14:51:51;;;;;;;5.60;1.50;;;;;;;;;;5075708;28;20465;-72